Time;durP1;ratioP1;P1;durP2;ratioP2;P2;SDS_P1;SDS_P2;PMS_P1;PMS_P2;Temp;Humidity;BMP_temperature;BMP_pressure;BME280_temperature;BME280_humidity;BME280_pressure;Samples;Min_cycle;Max_cycle;Signal;HPM_P1;HPM_P2
2022/01/25 00:10:41;;;;;;;;;;;;;;;-7.35;83.47;100668.34;1691592;85;20201;-74
2022/01/25 00:26:38;;;;;;;;;;;;;;;-7.35;82.69;100659.84;1688237;84;21003;-74
2022/01/25 00:29:09;;;;;;;;;;;;;;;-7.34;82.27;100658.01;1686092;84;20166;-74
2022/01/25 00:31:34;;;;;;;;;;;;;;;-7.34;82.31;100657.50;1688044;83;21165;-74
2022/01/25 00:34:02;;;;;;;;;;;;;;;-7.33;82.83;100652.50;1693458;84;20661;-74
2022/01/25 00:36:28;;;;;;;;;;;;;;;-7.33;82.44;100657.00;1688017;84;20178;-74
2022/01/25 00:38:55;;;;;;;;;;;;;;;-7.32;82.40;100659.50;1687964;83;20479;-75
2022/01/25 00:41:21;;;;;;;;;;;;;;;-7.33;82.34;100660.50;1688150;84;20209;-74
2022/01/25 00:43:48;;;;;;;;;;;;;;;-7.36;82.38;100663.52;1688531;85;21142;-75
2022/01/25 00:46:15;;;;;;;;;;;;;;;-7.37;82.31;100663.19;1693279;84;20428;-76
2022/01/25 00:48:45;;;;;;;;;;;;;;;-7.35;82.77;100661.17;1688259;85;20476;-75
2022/01/25 00:51:23;;;;;;;;;;;;;;;-7.30;82.84;100650.48;1687958;85;20174;-74
2022/01/25 00:54:03;;;;;;;;;;;;;;;-7.28;82.48;100645.31;1687221;84;20154;-75
2022/01/25 00:56:31;;;;;;;;;;;;;;;-7.29;82.27;100636.98;1688107;85;21169;-74
2022/01/25 00:59:04;;;;;;;;;;;;;;;-7.30;82.11;100638.48;1688166;84;20731;-75
2022/01/25 01:01:30;;;;;;;;;;;;;;;-7.32;82.02;100643.48;1687950;84;20144;-76
2022/01/25 01:03:57;;;;;;;;;;;;;;;-7.33;82.11;100645.00;1688247;83;20145;-78
2022/01/25 01:06:23;;;;;;;;;;;;;;;-7.33;82.03;100643.66;1687992;84;20177;-78
2022/01/25 01:08:49;;;;;;;;;;;;;;;-7.34;81.86;100643.33;1688358;85;21122;-77
2022/01/25 01:11:22;;;;;;;;;;;;;;;-7.35;81.91;100642.50;1688094;85;20171;-77
2022/01/25 01:30:02;;;;;;;;;;;;;;;-7.41;81.39;100635.19;1688180;84;20194;-77
2022/01/25 01:35:29;;;;;;;;;;;;;;;-7.52;81.86;100631.59;1688227;84;21169;-77
2022/01/25 01:43:06;;;;;;;;;;;;;;;-7.56;81.54;100639.61;1670260;85;20606;-76
2022/01/25 01:48:10;;;;;;;;;;;;;;;-7.60;81.51;100637.45;1688163;85;21825;-77
2022/01/25 01:50:33;;;;;;;;;;;;;;;-7.59;81.73;100625.78;1687145;84;20125;-77
2022/01/25 01:52:59;;;;;;;;;;;;;;;-7.58;81.53;100630.11;1687976;84;20174;-78
2022/01/25 01:55:26;;;;;;;;;;;;;;;-7.59;81.72;100625.78;1688126;85;20137;-77
2022/01/25 01:57:53;;;;;;;;;;;;;;;-7.56;82.37;100628.94;1688149;85;20142;-78
2022/01/25 02:00:24;;;;;;;;;;;;;;;-7.55;82.08;100626.60;1688323;84;22784;-78
2022/01/25 02:02:50;;;;;;;;;;;;;;;-7.56;81.95;100634.77;1687563;83;20125;-79
2022/01/25 02:05:16;;;;;;;;;;;;;;;-7.53;82.34;100629.93;1688108;83;20226;-78
2022/01/25 02:07:43;;;;;;;;;;;;;;;-7.53;81.78;100630.43;1688392;85;20479;-77
2022/01/25 02:10:10;;;;;;;;;;;;;;;-7.56;81.24;100618.77;1688426;85;20440;-75
2022/01/25 02:12:36;;;;;;;;;;;;;;;-7.60;81.65;100620.12;1688258;84;21936;-74
2022/01/25 02:15:04;;;;;;;;;;;;;;;-7.62;81.75;100620.80;1688218;85;20090;-73
2022/01/25 02:22:55;;;;;;;;;;;;;;;-7.64;81.80;100620.13;1688208;85;20210;-71
2022/01/25 02:25:22;;;;;;;;;;;;;;;-7.67;81.84;100613.31;1688300;85;21147;-70
2022/01/25 02:27:48;;;;;;;;;;;;;;;-7.73;82.75;100613.49;1687919;84;20105;-72
2022/01/25 02:30:14;;;;;;;;;;;;;;;-7.78;82.95;100609.67;1688034;85;20146;-75
2022/01/25 02:32:41;;;;;;;;;;;;;;;-7.87;82.99;100612.86;1688096;84;20173;-76
2022/01/25 02:35:08;;;;;;;;;;;;;;;-7.96;83.25;100612.55;1688082;85;20210;-72
2022/01/25 02:37:34;;;;;;;;;;;;;;;-7.98;84.14;100611.89;1688192;85;21158;-71
2022/01/25 02:40:01;;;;;;;;;;;;;;;-8.03;84.01;100606.23;1688213;85;20972;-72
2022/01/25 02:42:27;;;;;;;;;;;;;;;-8.14;84.61;100613.28;1688451;85;20500;-77
2022/01/25 02:44:53;;;;;;;;;;;;;;;-8.19;85.16;100603.63;1689068;85;20165;-77
2022/01/25 02:50:06;;;;;;;;;;;;;;;-8.20;85.44;100604.13;1688263;85;21741;-72
2022/01/25 02:52:33;;;;;;;;;;;;;;;-8.20;86.06;100601.46;1670102;85;20109;-75
2022/01/25 02:54:59;;;;;;;;;;;;;;;-8.18;86.25;100598.62;1688033;84;20222;-72
2022/01/25 02:57:25;;;;;;;;;;;;;;;-8.19;87.19;100601.80;1688354;84;20464;-74
2022/01/25 02:59:51;;;;;;;;;;;;;;;-8.18;87.65;100600.80;1688169;85;20475;-70
2022/01/25 03:02:18;;;;;;;;;;;;;;;-8.16;87.61;100596.63;1688074;83;22064;-74
2022/01/25 03:04:44;;;;;;;;;;;;;;;-8.18;87.64;100590.14;1646381;85;20125;-78
2022/01/25 03:07:11;;;;;;;;;;;;;;;-8.19;88.23;100584.98;1686615;85;20138;-75
2022/01/25 03:09:39;;;;;;;;;;;;;;;-8.24;88.03;100584.15;1703972;84;20180;-77
2022/01/25 03:12:09;;;;;;;;;;;;;;;-8.28;87.89;100580.66;1672410;86;20206;-76
2022/01/25 03:14:47;;;;;;;;;;;;;;;-8.32;89.37;100578.33;1692007;85;21157;-75
2022/01/25 03:17:07;;;;;;;;;;;;;;;-8.37;89.09;100572.70;1692337;84;20206;-77
2022/01/25 03:22:33;;;;;;;;;;;;;;;-8.46;89.60;100563.06;1674236;85;20133;-74
2022/01/25 03:24:47;;;;;;;;;;;;;;;-8.47;89.66;100547.25;1692638;84;20192;-75
2022/01/25 03:27:13;;;;;;;;;;;;;;;-8.55;89.38;100547.27;1706905;84;21810;-74
2022/01/25 03:29:40;;;;;;;;;;;;;;;-8.57;89.72;100548.77;1689372;85;20145;-75
2022/01/25 03:32:07;;;;;;;;;;;;;;;-8.58;89.79;100550.26;1706899;84;20173;-75
2022/01/25 03:34:34;;;;;;;;;;;;;;;-8.64;89.62;100534.45;1689407;85;20176;-75
2022/01/25 03:37:00;;;;;;;;;;;;;;;-8.67;89.75;100525.00;1707052;84;20164;-76
2022/01/25 03:39:26;;;;;;;;;;;;;;;-8.70;89.61;100529.33;1689480;85;21153;-75
2022/01/25 03:41:53;;;;;;;;;;;;;;;-8.68;89.57;100527.83;1706779;84;20157;-75
2022/01/25 03:44:19;;;;;;;;;;;;;;;-8.70;89.37;100525.34;1689502;85;20181;-76
2022/01/25 03:52:01;;;;;;;;;;;;;;;-8.66;89.22;100519.98;1708237;84;21038;-76
2022/01/25 03:54:28;;;;;;;;;;;;;;;-8.62;88.97;100523.14;1708308;84;20155;-77
2022/01/25 03:56:54;;;;;;;;;;;;;;;-8.58;88.96;100520.97;1708494;83;20140;-75
2022/01/25 03:59:20;;;;;;;;;;;;;;;-8.57;88.44;100514.64;1708315;84;20877;-76
2022/01/25 04:01:47;;;;;;;;;;;;;;;-8.57;88.25;100517.31;1708312;83;20194;-73
2022/01/25 04:04:19;;;;;;;;;;;;;;;-8.54;88.16;100508.98;1708437;82;22033;-74
2022/01/25 04:06:48;;;;;;;;;;;;;;;-8.47;88.16;100500.16;1690710;84;20105;-74
2022/01/25 04:09:12;;;;;;;;;;;;;;;-8.39;87.77;100498.80;1691293;84;20174;-74
2022/01/25 04:11:38;;;;;;;;;;;;;;;-8.40;86.47;100497.14;1691248;85;20142;-73
2022/01/25 04:14:05;;;;;;;;;;;;;;;-8.41;86.50;100503.47;1691221;85;20150;-72
2022/01/25 04:16:52;;;;;;;;;;;;;;;-8.41;86.64;100505.30;1685549;85;21933;-73
2022/01/25 04:26:50;;;;;;;;;;;;;;;-8.33;85.99;100502.63;1677347;85;20206;-77
2022/01/25 04:29:16;;;;;;;;;;;;;;;-8.38;85.78;100507.63;1677187;85;21857;-81
2022/01/25 04:31:42;;;;;;;;;;;;;;;-8.43;85.29;100497.98;1677508;85;20102;-80
2022/01/25 04:53:15;;;;;;;;;;;;;;;-8.40;86.17;100494.98;1667262;83;20175;-73
2022/01/25 04:55:40;;;;;;;;;;;;;;;-8.35;85.91;100488.64;1676825;85;21721;-80
2022/01/25 04:58:08;;;;;;;;;;;;;;;-8.36;86.01;100484.32;1677706;85;20098;-79
2022/01/25 05:00:29;;;;;;;;;;;;;;;-8.33;86.31;100489.30;1677266;85;20110;-79
2022/01/25 05:03:09;;;;;;;;;;;;;;;-8.36;85.26;100480.33;1677278;84;20178;-80
2022/01/25 05:05:33;;;;;;;;;;;;;;;-8.40;85.23;100481.16;1677114;85;20167;-76
2022/01/25 05:08:03;;;;;;;;;;;;;;;-8.42;85.44;100484.50;1676991;85;21184;-81
2022/01/25 05:10:24;;;;;;;;;;;;;;;-8.47;84.44;100480.69;1676871;85;20146;-78
2022/01/25 05:12:54;;;;;;;;;;;;;;;-8.54;84.65;100473.88;1677583;85;20409;-80
2022/01/25 05:17:59;;;;;;;;;;;;;;;-8.60;85.00;100467.89;1685936;84;20098;-78
2022/01/25 05:22:59;;;;;;;;;;;;;;;-8.59;85.58;100468.23;1688126;85;20156;-75
2022/01/25 05:25:25;;;;;;;;;;;;;;;-8.59;85.40;100456.75;1688544;85;20205;-76
2022/01/25 05:27:51;;;;;;;;;;;;;;;-8.59;85.14;100452.25;1688281;85;20470;-74
2022/01/25 05:30:18;;;;;;;;;;;;;;;-8.56;85.90;100452.41;1688337;85;20483;-75
2022/01/25 05:32:44;;;;;;;;;;;;;;;-8.55;85.20;100450.08;1688300;85;21108;-74
2022/01/25 05:35:11;;;;;;;;;;;;;;;-8.59;85.01;100453.58;1688499;85;20125;-74
2022/01/25 05:37:41;;;;;;;;;;;;;;;-8.60;86.24;100444.44;1688346;85;20460;-74
2022/01/25 05:40:13;;;;;;;;;;;;;;;-8.59;86.11;100443.44;1688062;84;20194;-77
2022/01/25 05:45:19;;;;;;;;;;;;;;;-8.60;85.92;100441.77;1688291;85;20480;-79
2022/01/25 05:47:41;;;;;;;;;;;;;;;-8.63;85.81;100442.11;1687384;83;20508;-76
2022/01/25 05:50:08;;;;;;;;;;;;;;;-8.67;85.55;100442.48;1688298;85;20233;-77
2022/01/25 05:52:35;;;;;;;;;;;;;;;-8.69;86.71;100440.48;1688128;85;20206;-73
2022/01/25 05:55:02;;;;;;;;;;;;;;;-8.71;85.90;100441.66;1688447;85;20237;-73
2022/01/25 05:57:28;;;;;;;;;;;;;;;-8.78;85.67;100442.83;1688481;85;21153;-73
2022/01/25 05:59:55;;;;;;;;;;;;;;;-8.81;86.07;100449.83;1688312;85;20118;-73
2022/01/25 06:02:24;;;;;;;;;;;;;;;-8.85;86.10;100443.17;1688336;83;20452;-73
2022/01/25 06:04:50;;;;;;;;;;;;;;;-8.86;86.04;100438.02;1670686;85;20531;-73
2022/01/25 06:07:17;;;;;;;;;;;;;;;-8.84;86.47;100428.88;1688567;85;20249;-73
2022/01/25 06:09:47;;;;;;;;;;;;;;;-8.79;86.49;100434.52;1688331;85;20197;-74
2022/01/25 06:12:13;;;;;;;;;;;;;;;-8.75;86.15;100428.36;1688237;85;20169;-77
2022/01/25 06:14:39;;;;;;;;;;;;;;;-8.75;86.00;100429.19;1688368;85;20121;-74
2022/01/25 06:17:06;;;;;;;;;;;;;;;-8.77;85.74;100431.19;1684303;85;20177;-74
2022/01/25 06:19:32;;;;;;;;;;;;;;;-8.83;85.48;100441.18;1677395;84;20139;-74
2022/01/25 06:21:59;;;;;;;;;;;;;;;-8.88;85.50;100448.84;1677466;85;21073;-75
2022/01/25 06:24:25;;;;;;;;;;;;;;;-8.90;86.10;100450.83;1677600;85;20125;-76
2022/01/25 06:26:51;;;;;;;;;;;;;;;-8.86;86.04;100446.00;1677622;84;20133;-75
2022/01/25 06:29:18;;;;;;;;;;;;;;;-8.88;85.65;100450.66;1677196;85;20201;-75
2022/01/25 06:31:48;;;;;;;;;;;;;;;-8.89;86.42;100450.33;1677547;85;20285;-75
2022/01/25 06:34:15;;;;;;;;;;;;;;;-8.89;86.26;100449.83;1677419;84;21125;-74
2022/01/25 06:36:42;;;;;;;;;;;;;;;-8.85;85.89;100452.98;1677107;85;20178;-74
2022/01/25 06:39:08;;;;;;;;;;;;;;;-8.88;86.16;100454.66;1677131;85;20166;-75
2022/01/25 06:41:36;;;;;;;;;;;;;;;-8.93;84.80;100457.81;1677255;85;20142;-75
2022/01/25 06:44:03;;;;;;;;;;;;;;;-9.02;84.68;100449.01;1677410;85;20173;-78
2022/01/25 06:46:29;;;;;;;;;;;;;;;-9.06;85.29;100451.67;1679417;85;21054;-76
2022/01/25 06:48:55;;;;;;;;;;;;;;;-9.06;85.49;100448.19;1677090;85;20121;-76
2022/01/25 06:51:22;;;;;;;;;;;;;;;-9.04;85.39;100444.86;1677274;84;20488;-77
2022/01/25 06:53:48;;;;;;;;;;;;;;;-9.00;85.56;100447.52;1677319;85;20448;-77
2022/01/25 06:56:14;;;;;;;;;;;;;;;-8.99;85.10;100441.20;1677588;85;20249;-77
2022/01/25 06:58:41;;;;;;;;;;;;;;;-9.04;84.51;100436.38;1677250;85;22137;-76
2022/01/25 07:01:08;;;;;;;;;;;;;;;-9.08;85.21;100438.20;1677052;85;21665;-74
2022/01/25 07:03:34;;;;;;;;;;;;;;;-9.09;85.66;100439.20;1690783;83;20137;-73
2022/01/25 07:06:00;;;;;;;;;;;;;;;-9.06;85.83;100425.07;1703290;84;20106;-78
2022/01/25 07:08:28;;;;;;;;;;;;;;;-8.98;86.14;100420.23;1703238;84;20181;-78
2022/01/25 07:10:54;;;;;;;;;;;;;;;-8.89;86.65;100415.24;1703304;84;21155;-77
2022/01/25 07:13:21;;;;;;;;;;;;;;;-8.78;86.49;100412.73;1703556;83;20125;-78
2022/01/25 07:15:47;;;;;;;;;;;;;;;-8.73;85.64;100413.87;1703260;83;20201;-77
2022/01/25 07:18:15;;;;;;;;;;;;;;;-8.68;85.91;100414.20;1701059;84;20177;-78
2022/01/25 07:20:42;;;;;;;;;;;;;;;-8.57;85.68;100407.66;1673900;84;36481;-77
2022/01/25 07:23:09;;;;;;;;;;;;;;;-8.53;84.87;100400.98;1700327;83;21997;-77
2022/01/25 07:25:35;;;;;;;;;;;;;;;-8.51;85.14;100392.83;1700342;84;20448;-80
2022/01/25 07:28:02;;;;;;;;;;;;;;;-8.47;84.49;100398.97;1700406;84;20468;-80
2022/01/25 07:30:29;;;;;;;;;;;;;;;-8.44;84.45;100388.47;1700178;84;20213;-79
2022/01/25 07:32:55;;;;;;;;;;;;;;;-8.36;84.77;100384.45;1700243;84;20189;-79
2022/01/25 07:35:21;;;;;;;;;;;;;;;-8.30;84.05;100378.90;1700170;84;21226;-79
2022/01/25 07:37:47;;;;;;;;;;;;;;;-8.26;84.08;100380.21;1700135;84;20350;-73
2022/01/25 07:40:16;;;;;;;;;;;;;;;-8.19;84.61;100381.18;1700179;84;20110;-73
2022/01/25 07:42:42;;;;;;;;;;;;;;;-8.11;84.18;100387.30;1700290;84;20217;-72
2022/01/25 07:45:11;;;;;;;;;;;;;;;-8.10;83.05;100388.95;1700106;83;20178;-76
2022/01/25 07:47:36;;;;;;;;;;;;;;;-8.13;83.40;100393.80;1700250;84;21103;-76
2022/01/25 07:50:05;;;;;;;;;;;;;;;-8.17;82.30;100385.83;1700447;84;20169;-76
2022/01/25 07:52:32;;;;;;;;;;;;;;;-8.32;81.75;100384.93;1700292;83;20089;-75
2022/01/25 07:54:58;;;;;;;;;;;;;;;-8.49;82.67;100380.17;1700445;84;20129;-76
2022/01/25 07:57:24;;;;;;;;;;;;;;;-8.53;82.85;100384.17;1700140;84;20134;-76
2022/01/25 07:59:52;;;;;;;;;;;;;;;-8.60;82.65;100384.03;1700138;84;21113;-75
2022/01/25 08:02:18;;;;;;;;;;;;;;;-8.63;82.91;100376.89;1699045;83;20485;-74
2022/01/25 08:04:49;;;;;;;;;;;;;;;-8.66;83.60;100369.58;1687926;83;20476;-71
2022/01/25 08:07:14;;;;;;;;;;;;;;;-8.60;83.27;100373.89;1704510;83;20131;-74
2022/01/25 08:09:41;;;;;;;;;;;;;;;-8.64;83.56;100369.41;1688046;85;21016;-75
2022/01/25 08:12:10;;;;;;;;;;;;;;;-8.67;83.53;100369.28;1687943;85;21215;-79
2022/01/25 08:14:37;;;;;;;;;;;;;;;-8.68;82.92;100378.77;1688019;85;20146;-76
2022/01/25 08:17:04;;;;;;;;;;;;;;;-8.75;83.70;100375.13;1686776;85;20497;-74
2022/01/25 08:19:31;;;;;;;;;;;;;;;-8.79;83.26;100369.31;1677061;85;20190;-77
2022/01/25 08:21:57;;;;;;;;;;;;;;;-8.81;83.14;100362.50;1679054;84;20173;-74
2022/01/25 08:24:23;;;;;;;;;;;;;;;-8.78;83.66;100366.98;1705494;83;21132;-77
2022/01/25 08:26:49;;;;;;;;;;;;;;;-8.66;84.12;100362.09;1696850;84;20434;-78
2022/01/25 08:29:15;;;;;;;;;;;;;;;-8.57;83.05;100361.56;1677426;84;20476;-77
2022/01/25 08:31:42;;;;;;;;;;;;;;;-8.55;83.06;100361.72;1677055;84;20198;-75
2022/01/25 08:34:14;;;;;;;;;;;;;;;-8.48;83.53;100356.53;1677235;85;20143;-73
2022/01/25 08:36:39;;;;;;;;;;;;;;;-8.45;82.58;100342.88;1676947;85;21862;-74
2022/01/25 08:39:06;;;;;;;;;;;;;;;-8.41;82.59;100338.36;1676910;85;20133;-71
2022/01/25 08:41:32;;;;;;;;;;;;;;;-8.32;82.49;100343.65;1677289;84;20150;-71
2022/01/25 08:43:58;;;;;;;;;;;;;;;-8.21;82.44;100345.39;1677090;84;20167;-71
2022/01/25 08:46:25;;;;;;;;;;;;;;;-8.09;82.01;100337.33;1677941;85;20147;-80
2022/01/25 08:48:51;;;;;;;;;;;;;;;-8.02;81.46;100328.92;1678133;85;21097;-79
2022/01/25 08:51:17;;;;;;;;;;;;;;;-7.96;81.20;100320.73;1677476;85;20133;-78
2022/01/25 08:53:44;;;;;;;;;;;;;;;-7.89;81.13;100315.52;1677197;84;20183;-73
2022/01/25 08:56:10;;;;;;;;;;;;;;;-7.82;82.40;100320.47;1677174;84;20147;-73
2022/01/25 08:58:37;;;;;;;;;;;;;;;-7.78;80.92;100313.77;1681079;84;20183;-73
2022/01/25 09:01:03;;;;;;;;;;;;;;;-7.81;80.21;100315.46;1689700;83;21101;-74
2022/01/25 09:03:31;;;;;;;;;;;;;;;-7.83;81.24;100308.98;1690917;84;20137;-73
2022/01/25 09:05:57;;;;;;;;;;;;;;;-7.77;80.95;100310.10;1689495;84;20207;-73
2022/01/25 09:08:27;;;;;;;;;;;;;;;-7.69;79.82;100310.04;1692191;84;20176;-72
2022/01/25 09:10:57;;;;;;;;;;;;;;;-7.60;80.35;100294.80;1690857;84;20170;-73
2022/01/25 09:13:20;;;;;;;;;;;;;;;-7.49;79.68;100296.50;1689477;83;21523;-74
2022/01/25 09:15:47;;;;;;;;;;;;;;;-7.37;79.26;100296.89;1697126;84;20124;-74
2022/01/25 09:18:13;;;;;;;;;;;;;;;-7.39;78.50;100289.08;1707775;82;20482;-71
2022/01/25 09:20:39;;;;;;;;;;;;;;;-7.39;77.52;100285.08;1714869;83;20485;-73
2022/01/25 09:23:05;;;;;;;;;;;;;;;-7.41;77.20;100279.09;1716074;83;20170;-76
2022/01/25 09:25:31;;;;;;;;;;;;;;;-7.36;77.88;100285.22;1715827;83;21113;-73
2022/01/25 09:27:58;;;;;;;;;;;;;;;-7.24;77.24;100276.27;1716347;83;20134;-75
2022/01/25 09:30:25;;;;;;;;;;;;;;;-7.15;76.43;100267.98;1716290;83;20210;-75
2022/01/25 09:32:51;;;;;;;;;;;;;;;-7.01;77.14;100270.34;1708036;83;20190;-71
2022/01/25 09:35:19;;;;;;;;;;;;;;;-6.80;76.67;100273.06;1700248;83;20539;-72
2022/01/25 09:37:52;;;;;;;;;;;;;;;-6.59;76.07;100266.13;1701441;83;21244;-72
2022/01/25 09:40:18;;;;;;;;;;;;;;;-6.46;76.20;100259.11;1698932;82;20213;-73
2022/01/25 09:42:52;;;;;;;;;;;;;;;-6.38;75.51;100248.81;1669838;84;20278;-72
2022/01/25 09:45:18;;;;;;;;;;;;;;;-6.30;73.66;100248.67;1682549;84;20165;-71
2022/01/25 09:47:48;;;;;;;;;;;;;;;-6.34;74.19;100245.55;1707213;83;20203;-70
2022/01/25 09:50:19;;;;;;;;;;;;;;;-6.28;74.12;100243.13;1696832;82;20170;-69
2022/01/25 09:52:45;;;;;;;;;;;;;;;-6.18;74.13;100239.13;1723839;82;20582;-75
2022/01/25 09:55:19;;;;;;;;;;;;;;;-6.06;74.51;100236.28;1718606;82;20432;-75
2022/01/25 09:57:51;;;;;;;;;;;;;;;-6.04;73.27;100234.75;1698383;82;20162;-78
2022/01/25 10:00:21;;;;;;;;;;;;;;;-6.16;72.82;100235.77;1700623;82;20189;-77
2022/01/25 10:05:46;;;;;;;;;;;;;;;-6.11;73.89;100223.16;1721816;82;20364;-75
2022/01/25 10:08:25;;;;;;;;;;;;;;;-6.06;73.65;100217.56;1716172;82;20166;-78
2022/01/25 10:10:58;;;;;;;;;;;;;;;-5.77;73.75;100205.83;1711375;82;20154;-79
2022/01/25 10:13:33;;;;;;;;;;;;;;;-5.45;72.75;100215.12;1739705;82;20179;-80
2022/01/25 10:16:13;;;;;;;;;;;;;;;-5.24;72.26;100220.09;1712804;82;20305;-75
2022/01/25 10:18:49;;;;;;;;;;;;;;;-5.15;71.44;100215.69;1728018;82;20710;-73
2022/01/25 10:21:31;;;;;;;;;;;;;;;-5.14;71.09;100215.18;1716538;82;20127;-74
2022/01/25 10:24:27;;;;;;;;;;;;;;;-5.15;70.48;100210.34;1728954;82;20473;-83
2022/01/25 10:26:56;;;;;;;;;;;;;;;-5.28;69.01;100206.28;1716509;82;20466;-79
2022/01/25 10:29:26;;;;;;;;;;;;;;;-5.54;70.08;100203.42;1729410;82;20127;-70
2022/01/25 10:31:58;;;;;;;;;;;;;;;-5.55;70.49;100199.09;1716771;82;20167;-70
2022/01/25 10:34:29;;;;;;;;;;;;;;;-5.39;71.12;100198.28;1728391;82;20140;-70
2022/01/25 10:37:00;;;;;;;;;;;;;;;-5.13;70.40;100194.08;1716222;82;20468;-73
2022/01/25 10:39:31;;;;;;;;;;;;;;;-4.88;69.03;100192.55;1716908;83;20182;-76
2022/01/25 10:42:03;;;;;;;;;;;;;;;-4.77;68.51;100179.93;1707929;83;21141;-71
2022/01/25 10:44:47;;;;;;;;;;;;;;;-4.68;67.24;100176.05;1701707;83;20157;-74
2022/01/25 10:47:16;;;;;;;;;;;;;;;-4.47;67.23;100170.20;1700479;83;20181;-75
2022/01/25 10:49:47;;;;;;;;;;;;;;;-4.33;65.91;100175.39;1689104;83;20898;-73
2022/01/25 10:52:30;;;;;;;;;;;;;;;-4.26;66.27;100167.36;1692281;83;20492;-72
2022/01/25 10:55:00;;;;;;;;;;;;;;;-4.21;64.92;100160.04;1687966;85;21186;-75
2022/01/25 10:57:30;;;;;;;;;;;;;;;-4.17;64.48;100153.23;1685023;84;20613;-82
2022/01/25 11:00:03;;;;;;;;;;;;;;;-4.08;64.46;100153.35;1700206;83;20194;-83
2022/01/25 11:02:42;;;;;;;;;;;;;;;-3.99;62.84;100148.89;1709952;82;20641;-86
2022/01/25 11:05:14;;;;;;;;;;;;;;;-4.22;63.75;100137.77;1679321;84;20188;-76
2022/01/25 11:07:40;;;;;;;;;;;;;;;-4.45;63.45;100138.66;1688081;84;21188;-84
2022/01/25 11:10:09;;;;;;;;;;;;;;;-4.61;63.41;100130.48;1687903;84;20191;-81
2022/01/25 11:12:46;;;;;;;;;;;;;;;-4.70;64.12;100129.05;1677999;85;20142;-75
2022/01/25 11:15:12;;;;;;;;;;;;;;;-4.67;64.14;100133.50;1687575;84;20310;-74
2022/01/25 11:17:40;;;;;;;;;;;;;;;-4.66;63.83;100136.48;1687933;84;20193;-76
2022/01/25 11:20:08;;;;;;;;;;;;;;;-4.56;64.87;100129.88;1677587;85;20169;-85
2022/01/25 11:22:54;;;;;;;;;;;;;;;-4.44;63.45;100129.59;1729121;82;20769;-85
2022/01/25 11:25:26;;;;;;;;;;;;;;;-4.63;62.60;100123.20;1729488;83;20542;-75
2022/01/25 11:27:57;;;;;;;;;;;;;;;-4.81;63.00;100118.41;1707165;81;20151;-74
2022/01/25 11:30:32;;;;;;;;;;;;;;;-5.11;63.01;100121.09;1768810;80;20194;-76
2022/01/25 11:33:05;;;;;;;;;;;;;;;-5.45;63.66;100120.13;1735152;81;20165;-79
2022/01/25 11:35:34;;;;;;;;;;;;;;;-5.60;65.19;100115.92;1765925;80;20084;-77
2022/01/25 11:38:03;;;;;;;;;;;;;;;-5.65;65.08;100105.82;1774475;80;20462;-81
2022/01/25 11:40:34;;;;;;;;;;;;;;;-5.48;65.29;100098.30;1758338;80;20465;-83
2022/01/25 11:43:13;;;;;;;;;;;;;;;-4.93;66.44;100091.08;1766796;80;20111;-80
2022/01/25 11:45:49;;;;;;;;;;;;;;;-4.17;64.98;100088.37;1793507;80;21107;-74
2022/01/25 11:48:21;;;;;;;;;;;;;;;-3.31;63.94;100081.45;1793022;80;20170;-83
2022/01/25 11:51:08;;;;;;;;;;;;;;;-2.61;60.90;100058.63;1766377;80;20096;-73
2022/01/25 11:53:23;;;;;;;;;;;;;;;-2.31;59.70;100066.34;1774694;80;20175;-81
2022/01/25 11:55:55;;;;;;;;;;;;;;;-1.90;58.80;100058.23;1762024;81;20122;-77
2022/01/25 11:58:30;;;;;;;;;;;;;;;-1.55;57.64;100053.91;1760401;81;21164;-76
2022/01/25 12:00:59;;;;;;;;;;;;;;;-1.55;55.66;100054.42;1761030;81;20174;-76
2022/01/25 12:03:33;;;;;;;;;;;;;;;-1.79;55.70;100048.08;1760820;81;20178;-80
2022/01/25 12:06:22;;;;;;;;;;;;;;;-1.99;55.77;100040.20;1761063;81;20776;-80
2022/01/25 12:09:07;;;;;;;;;;;;;;;-2.11;55.45;100041.97;1761894;81;20138;-77
2022/01/25 12:11:31;;;;;;;;;;;;;;;-2.40;55.67;100039.45;1761851;81;21479;-76
2022/01/25 12:14:27;;;;;;;;;;;;;;;-2.70;56.31;100034.70;1760867;81;20421;-74
2022/01/25 12:17:05;;;;;;;;;;;;;;;-2.99;56.77;100032.65;1734242;81;20118;-77
2022/01/25 12:19:45;;;;;;;;;;;;;;;-3.30;57.83;100032.08;1759804;81;20146;-71
2022/01/25 12:22:19;;;;;;;;;;;;;;;-3.57;58.21;100030.56;1760828;81;20182;-76
2022/01/25 12:25:16;;;;;;;;;;;;;;;-3.88;58.87;100033.44;1755201;81;20740;-74
2022/01/25 12:27:56;;;;;;;;;;;;;;;-4.29;61.19;100027.03;1761229;81;20133;-73
2022/01/25 12:30:32;;;;;;;;;;;;;;;-4.59;61.86;100016.41;1761434;81;20121;-74
2022/01/25 12:33:12;;;;;;;;;;;;;;;-4.71;62.25;100003.66;1763950;80;20755;-73
2022/01/25 12:35:50;;;;;;;;;;;;;;;-4.77;63.09;100003.14;1714733;81;20203;-76
2022/01/25 12:38:28;;;;;;;;;;;;;;;-4.84;63.00;99995.62;1758886;81;21990;-76
2022/01/25 12:41:05;;;;;;;;;;;;;;;-4.83;63.53;99985.21;1754023;81;20496;-80
2022/01/25 12:43:41;;;;;;;;;;;;;;;-4.77;64.31;99984.39;1725532;81;20200;-78
2022/01/25 12:46:14;;;;;;;;;;;;;;;-4.72;63.89;99981.92;1760301;81;20436;-81
2022/01/25 12:48:46;;;;;;;;;;;;;;;-4.70;63.81;99989.75;1725753;81;20430;-77
2022/01/25 12:51:19;;;;;;;;;;;;;;;-4.67;64.17;99992.84;1757563;81;21163;-74
2022/01/25 12:53:47;;;;;;;;;;;;;;;-4.62;64.31;99991.41;1753748;81;20202;-71
2022/01/25 12:56:17;;;;;;;;;;;;;;;-4.68;64.00;99987.18;1755693;81;20201;-77
2022/01/25 12:58:47;;;;;;;;;;;;;;;-4.78;64.51;99983.27;1751820;81;20126;-77
2022/01/25 13:01:15;;;;;;;;;;;;;;;-4.84;64.71;99980.89;1752573;81;20224;-78
2022/01/25 13:03:44;;;;;;;;;;;;;;;-4.95;64.70;99982.83;1757423;81;21494;-76
2022/01/25 13:06:16;;;;;;;;;;;;;;;-5.03;65.71;99981.69;1769704;80;20124;-88
2022/01/25 13:09:10;;;;;;;;;;;;;;;-5.08;66.20;99973.44;1750690;80;20478;-76
2022/01/25 13:11:49;;;;;;;;;;;;;;;-5.19;65.84;99972.19;1755484;81;20177;-72
2022/01/25 13:14:31;;;;;;;;;;;;;;;-5.29;66.55;99968.28;1755611;81;20472;-68
2022/01/25 13:16:55;;;;;;;;;;;;;;;-5.40;66.50;99977.20;1752255;81;20995;-66
2022/01/25 13:19:41;;;;;;;;;;;;;;;-5.46;66.68;99966.48;1758835;81;20146;-68
2022/01/25 13:22:15;;;;;;;;;;;;;;;-5.51;67.49;99966.27;1758672;81;20162;-67
2022/01/25 13:24:55;;;;;;;;;;;;;;;-5.50;68.21;99963.39;1752385;81;20169;-67
2022/01/25 13:27:13;;;;;;;;;;;;;;;-5.59;67.34;99973.13;1723695;83;20211;-66
2022/01/25 13:32:41;;;;;;;;;;;;;;;-5.81;68.63;99965.26;1755279;81;20135;-67
2022/01/25 13:35:17;;;;;;;;;;;;;;;-5.84;68.67;99960.82;1760561;80;20125;-66
2022/01/25 13:37:47;;;;;;;;;;;;;;;-5.88;69.05;99955.05;1752664;81;20166;-67
2022/01/25 13:40:19;;;;;;;;;;;;;;;-5.94;69.06;99949.70;1689878;82;20192;-66
2022/01/25 13:43:18;;;;;;;;;;;;;;;-6.05;69.02;99945.23;1760307;81;21821;-67
2022/01/25 13:45:44;;;;;;;;;;;;;;;-6.08;70.42;99944.30;1757653;81;20488;-67
2022/01/25 13:48:19;;;;;;;;;;;;;;;-6.13;70.17;99936.05;1755774;81;20142;-67
2022/01/25 13:50:48;;;;;;;;;;;;;;;-6.14;70.23;99937.06;1760283;81;20166;-67
2022/01/25 13:53:15;;;;;;;;;;;;;;;-6.13;70.90;99940.56;1755330;81;20247;-67
2022/01/25 13:55:50;;;;;;;;;;;;;;;-6.14;70.72;99939.73;1699083;82;21052;-66
2022/01/25 13:58:37;;;;;;;;;;;;;;;-6.09;70.30;99940.48;1723146;83;20463;-67
2022/01/25 14:01:03;;;;;;;;;;;;;;;-6.11;70.20;99933.17;1722522;82;20468;-67
2022/01/25 14:03:33;;;;;;;;;;;;;;;-6.12;70.22;99938.20;1754142;81;20468;-67
2022/01/25 14:06:06;;;;;;;;;;;;;;;-6.16;70.27;99935.61;1754692;81;20480;-67
2022/01/25 14:08:40;;;;;;;;;;;;;;;-6.13;70.77;99931.20;1754999;81;21191;-68
2022/01/25 14:11:34;;;;;;;;;;;;;;;-6.08;70.78;99933.59;1755982;81;20170;-67
2022/01/25 14:24:52;;;;;;;;;;;;;;;-6.13;70.93;99928.53;1751792;81;20225;-68
2022/01/25 14:27:30;;;;;;;;;;;;;;;-6.21;71.02;99926.85;1760592;81;20158;-68
2022/01/25 14:30:00;;;;;;;;;;;;;;;-6.25;71.36;99930.12;1754032;81;20329;-69
2022/01/25 14:32:30;;;;;;;;;;;;;;;-6.25;71.43;99945.64;1755084;81;20177;-69
2022/01/25 14:35:05;;;;;;;;;;;;;;;-6.30;71.53;99940.57;1773561;80;20153;-69
2022/01/25 14:37:48;;;;;;;;;;;;;;;-6.35;71.85;99929.95;1792660;80;20127;-70
2022/01/25 14:40:15;;;;;;;;;;;;;;;-6.40;72.62;99928.93;1793193;80;20131;-68
2022/01/25 14:42:44;;;;;;;;;;;;;;;-6.47;72.89;99925.39;1793290;80;20176;-69
2022/01/25 14:45:25;;;;;;;;;;;;;;;-6.53;73.34;99932.34;1793395;80;20502;-70
2022/01/25 14:47:54;;;;;;;;;;;;;;;-6.58;73.87;99929.94;1742210;81;20153;-71